sensor_id;sensor_type;location;lat;lon;timestamp;P1;durP1;ratioP1;P2;durP2;ratioP2
5995;SDS011;3026;53.612;7.278;2022-12-28T00:01:33;5.47;;;3.00;;
5995;SDS011;3026;53.612;7.278;2022-12-28T00:04:02;9.07;;;3.97;;
5995;SDS011;3026;53.612;7.278;2022-12-28T00:06:31;10.10;;;3.80;;
5995;SDS011;3026;53.612;7.278;2022-12-28T00:08:59;6.17;;;3.20;;
5995;SDS011;3026;53.612;7.278;2022-12-28T00:11:29;11.40;;;3.37;;
5995;SDS011;3026;53.612;7.278;2022-12-28T00:13:58;8.33;;;4.33;;
5995;SDS011;3026;53.612;7.278;2022-12-28T00:16:29;8.27;;;2.80;;
5995;SDS011;3026;53.612;7.278;2022-12-28T00:18:57;5.60;;;3.10;;
5995;SDS011;3026;53.612;7.278;2022-12-28T00:21:25;8.20;;;3.10;;
5995;SDS011;3026;53.612;7.278;2022-12-28T00:23:53;6.20;;;3.03;;
5995;SDS011;3026;53.612;7.278;2022-12-28T00:26:22;11.67;;;3.50;;
5995;SDS011;3026;53.612;7.278;2022-12-28T00:28:50;5.93;;;3.20;;
5995;SDS011;3026;53.612;7.278;2022-12-28T00:31:17;8.77;;;3.17;;
5995;SDS011;3026;53.612;7.278;2022-12-28T00:33:44;6.27;;;2.87;;
5995;SDS011;3026;53.612;7.278;2022-12-28T00:36:11;9.03;;;3.90;;
5995;SDS011;3026;53.612;7.278;2022-12-28T00:38:39;7.10;;;3.40;;
5995;SDS011;3026;53.612;7.278;2022-12-28T00:41:06;5.50;;;3.13;;
5995;SDS011;3026;53.612;7.278;2022-12-28T00:43:33;6.90;;;3.37;;
5995;SDS011;3026;53.612;7.278;2022-12-28T00:46:02;8.47;;;3.67;;
5995;SDS011;3026;53.612;7.278;2022-12-28T00:48:29;5.60;;;3.33;;
5995;SDS011;3026;53.612;7.278;2022-12-28T00:51:00;6.47;;;3.80;;
5995;SDS011;3026;53.612;7.278;2022-12-28T00:53:28;8.40;;;4.10;;
5995;SDS011;3026;53.612;7.278;2022-12-28T00:56:02;7.97;;;3.77;;
5995;SDS011;3026;53.612;7.278;2022-12-28T00:58:30;5.37;;;3.37;;
5995;SDS011;3026;53.612;7.278;2022-12-28T01:00:57;5.93;;;3.47;;
5995;SDS011;3026;53.612;7.278;2022-12-28T01:03:25;9.53;;;3.87;;
5995;SDS011;3026;53.612;7.278;2022-12-28T01:05:52;7.33;;;3.63;;
5995;SDS011;3026;53.612;7.278;2022-12-28T01:08:19;9.10;;;3.47;;
5995;SDS011;3026;53.612;7.278;2022-12-28T01:10:46;8.17;;;3.83;;
5995;SDS011;3026;53.612;7.278;2022-12-28T01:13:13;5.27;;;3.70;;
5995;SDS011;3026;53.612;7.278;2022-12-28T01:15:40;8.53;;;3.70;;
5995;SDS011;3026;53.612;7.278;2022-12-28T01:18:07;9.60;;;3.60;;
5995;SDS011;3026;53.612;7.278;2022-12-28T01:20:37;5.00;;;3.47;;
5995;SDS011;3026;53.612;7.278;2022-12-28T01:23:04;9.20;;;3.50;;
5995;SDS011;3026;53.612;7.278;2022-12-28T01:25:32;7.27;;;3.30;;
5995;SDS011;3026;53.612;7.278;2022-12-28T01:27:59;8.03;;;3.93;;
5995;SDS011;3026;53.612;7.278;2022-12-28T01:30:26;9.67;;;4.10;;
5995;SDS011;3026;53.612;7.278;2022-12-28T01:32:54;9.07;;;3.80;;
5995;SDS011;3026;53.612;7.278;2022-12-28T01:35:23;5.80;;;4.03;;
5995;SDS011;3026;53.612;7.278;2022-12-28T01:37:52;8.33;;;3.87;;
5995;SDS011;3026;53.612;7.278;2022-12-28T01:40:21;7.37;;;3.63;;
5995;SDS011;3026;53.612;7.278;2022-12-28T01:42:48;9.57;;;4.00;;
5995;SDS011;3026;53.612;7.278;2022-12-28T01:45:16;5.50;;;3.80;;
5995;SDS011;3026;53.612;7.278;2022-12-28T01:47:45;4.23;;;3.50;;
5995;SDS011;3026;53.612;7.278;2022-12-28T01:50:15;7.20;;;3.60;;
5995;SDS011;3026;53.612;7.278;2022-12-28T01:52:46;7.50;;;3.70;;
5995;SDS011;3026;53.612;7.278;2022-12-28T01:55:20;7.83;;;4.23;;
5995;SDS011;3026;53.612;7.278;2022-12-28T01:57:51;8.60;;;4.30;;
5995;SDS011;3026;53.612;7.278;2022-12-28T02:00:21;5.57;;;4.23;;
5995;SDS011;3026;53.612;7.278;2022-12-28T02:02:51;9.30;;;4.03;;
5995;SDS011;3026;53.612;7.278;2022-12-28T02:05:21;8.50;;;3.57;;
5995;SDS011;3026;53.612;7.278;2022-12-28T02:07:52;5.30;;;3.40;;
5995;SDS011;3026;53.612;7.278;2022-12-28T02:10:24;6.60;;;3.67;;
5995;SDS011;3026;53.612;7.278;2022-12-28T02:12:53;10.37;;;4.10;;
5995;SDS011;3026;53.612;7.278;2022-12-28T02:15:22;4.87;;;3.50;;
5995;SDS011;3026;53.612;7.278;2022-12-28T02:17:49;6.20;;;3.70;;
5995;SDS011;3026;53.612;7.278;2022-12-28T02:20:16;6.23;;;3.83;;
5995;SDS011;3026;53.612;7.278;2022-12-28T02:22:47;6.00;;;3.30;;
5995;SDS011;3026;53.612;7.278;2022-12-28T02:28:58;5.13;;;3.27;;
5995;SDS011;3026;53.612;7.278;2022-12-28T02:31:35;7.70;;;3.70;;
5995;SDS011;3026;53.612;7.278;2022-12-28T02:34:10;6.33;;;3.77;;
5995;SDS011;3026;53.612;7.278;2022-12-28T02:36:42;4.60;;;3.67;;
5995;SDS011;3026;53.612;7.278;2022-12-28T02:39:17;6.03;;;4.17;;
5995;SDS011;3026;53.612;7.278;2022-12-28T02:41:48;8.20;;;4.00;;
5995;SDS011;3026;53.612;7.278;2022-12-28T02:44:18;6.80;;;3.67;;
5995;SDS011;3026;53.612;7.278;2022-12-28T02:47:00;7.53;;;3.60;;
5995;SDS011;3026;53.612;7.278;2022-12-28T02:49:44;7.47;;;4.10;;
5995;SDS011;3026;53.612;7.278;2022-12-28T02:52:31;6.50;;;3.80;;
5995;SDS011;3026;53.612;7.278;2022-12-28T02:55:09;6.83;;;4.73;;
5995;SDS011;3026;53.612;7.278;2022-12-28T02:58:10;6.70;;;4.10;;
5995;SDS011;3026;53.612;7.278;2022-12-28T03:00:54;8.10;;;3.80;;
5995;SDS011;3026;53.612;7.278;2022-12-28T03:03:29;6.27;;;4.00;;
5995;SDS011;3026;53.612;7.278;2022-12-28T03:06:05;8.20;;;4.00;;
5995;SDS011;3026;53.612;7.278;2022-12-28T03:08:58;7.27;;;3.93;;
5995;SDS011;3026;53.612;7.278;2022-12-28T03:11:31;6.67;;;3.80;;
5995;SDS011;3026;53.612;7.278;2022-12-28T03:14:05;9.57;;;3.83;;
5995;SDS011;3026;53.612;7.278;2022-12-28T03:16:36;10.27;;;4.33;;
5995;SDS011;3026;53.612;7.278;2022-12-28T03:19:19;7.57;;;3.80;;
5995;SDS011;3026;53.612;7.278;2022-12-28T03:22:05;6.70;;;3.60;;
5995;SDS011;3026;53.612;7.278;2022-12-28T03:24:52;10.50;;;4.30;;
5995;SDS011;3026;53.612;7.278;2022-12-28T03:27:37;6.97;;;3.83;;
5995;SDS011;3026;53.612;7.278;2022-12-28T03:30:22;5.37;;;4.07;;
5995;SDS011;3026;53.612;7.278;2022-12-28T03:33:09;4.20;;;3.80;;
5995;SDS011;3026;53.612;7.278;2022-12-28T03:35:38;5.23;;;3.73;;
5995;SDS011;3026;53.612;7.278;2022-12-28T03:38:11;6.93;;;3.80;;
5995;SDS011;3026;53.612;7.278;2022-12-28T03:40:52;5.17;;;3.53;;
5995;SDS011;3026;53.612;7.278;2022-12-28T03:43:26;7.40;;;3.97;;
5995;SDS011;3026;53.612;7.278;2022-12-28T03:46:06;6.10;;;3.60;;
5995;SDS011;3026;53.612;7.278;2022-12-28T03:48:39;5.53;;;4.03;;
5995;SDS011;3026;53.612;7.278;2022-12-28T03:51:07;6.27;;;3.87;;
5995;SDS011;3026;53.612;7.278;2022-12-28T03:53:36;5.47;;;3.60;;
5995;SDS011;3026;53.612;7.278;2022-12-28T03:56:07;4.47;;;3.27;;
5995;SDS011;3026;53.612;7.278;2022-12-28T03:58:34;5.37;;;3.27;;
5995;SDS011;3026;53.612;7.278;2022-12-28T04:01:01;6.67;;;3.50;;
5995;SDS011;3026;53.612;7.278;2022-12-28T04:03:29;5.03;;;3.00;;
5995;SDS011;3026;53.612;7.278;2022-12-28T04:05:57;6.53;;;3.20;;
5995;SDS011;3026;53.612;7.278;2022-12-28T04:08:24;5.73;;;3.33;;
5995;SDS011;3026;53.612;7.278;2022-12-28T04:10:51;4.53;;;3.40;;
5995;SDS011;3026;53.612;7.278;2022-12-28T04:13:19;3.87;;;2.83;;
5995;SDS011;3026;53.612;7.278;2022-12-28T04:15:53;4.97;;;3.20;;
5995;SDS011;3026;53.612;7.278;2022-12-28T04:18:21;4.30;;;2.77;;
5995;SDS011;3026;53.612;7.278;2022-12-28T04:20:48;3.13;;;2.83;;
5995;SDS011;3026;53.612;7.278;2022-12-28T04:23:17;5.53;;;3.37;;
5995;SDS011;3026;53.612;7.278;2022-12-28T04:25:54;3.13;;;2.80;;
5995;SDS011;3026;53.612;7.278;2022-12-28T04:28:22;5.37;;;3.10;;
5995;SDS011;3026;53.612;7.278;2022-12-28T04:30:50;3.87;;;3.00;;
5995;SDS011;3026;53.612;7.278;2022-12-28T04:33:19;3.90;;;2.83;;
5995;SDS011;3026;53.612;7.278;2022-12-28T04:35:48;4.33;;;2.93;;
5995;SDS011;3026;53.612;7.278;2022-12-28T04:38:16;3.03;;;2.73;;
5995;SDS011;3026;53.612;7.278;2022-12-28T04:40:44;5.50;;;3.80;;
5995;SDS011;3026;53.612;7.278;2022-12-28T04:43:11;4.40;;;3.27;;
5995;SDS011;3026;53.612;7.278;2022-12-28T04:45:38;4.67;;;3.40;;
5995;SDS011;3026;53.612;7.278;2022-12-28T04:48:05;4.00;;;3.43;;
5995;SDS011;3026;53.612;7.278;2022-12-28T04:50:32;5.40;;;3.67;;
5995;SDS011;3026;53.612;7.278;2022-12-28T04:52:59;4.17;;;3.30;;
5995;SDS011;3026;53.612;7.278;2022-12-28T04:55:27;5.57;;;3.10;;
5995;SDS011;3026;53.612;7.278;2022-12-28T04:57:54;4.10;;;3.50;;
5995;SDS011;3026;53.612;7.278;2022-12-28T05:00:21;5.83;;;3.47;;
5995;SDS011;3026;53.612;7.278;2022-12-28T05:02:48;5.00;;;3.70;;
5995;SDS011;3026;53.612;7.278;2022-12-28T05:05:15;4.70;;;2.97;;
5995;SDS011;3026;53.612;7.278;2022-12-28T05:07:42;4.60;;;3.87;;
5995;SDS011;3026;53.612;7.278;2022-12-28T05:10:09;7.80;;;3.70;;
5995;SDS011;3026;53.612;7.278;2022-12-28T05:12:37;4.93;;;3.53;;
5995;SDS011;3026;53.612;7.278;2022-12-28T05:15:04;5.03;;;3.40;;
5995;SDS011;3026;53.612;7.278;2022-12-28T05:17:32;5.43;;;3.30;;
5995;SDS011;3026;53.612;7.278;2022-12-28T05:20:00;4.37;;;3.43;;
5995;SDS011;3026;53.612;7.278;2022-12-28T05:22:27;5.67;;;3.00;;
5995;SDS011;3026;53.612;7.278;2022-12-28T05:24:53;4.83;;;3.10;;
5995;SDS011;3026;53.612;7.278;2022-12-28T05:27:20;3.83;;;3.10;;
5995;SDS011;3026;53.612;7.278;2022-12-28T05:29:49;3.50;;;3.20;;
5995;SDS011;3026;53.612;7.278;2022-12-28T05:32:15;3.27;;;2.93;;
5995;SDS011;3026;53.612;7.278;2022-12-28T05:34:43;4.33;;;3.00;;
5995;SDS011;3026;53.612;7.278;2022-12-28T05:37:09;4.33;;;2.83;;
5995;SDS011;3026;53.612;7.278;2022-12-28T05:39:36;3.83;;;3.03;;
5995;SDS011;3026;53.612;7.278;2022-12-28T05:42:03;3.83;;;3.43;;
5995;SDS011;3026;53.612;7.278;2022-12-28T05:44:30;4.47;;;3.17;;
5995;SDS011;3026;53.612;7.278;2022-12-28T05:46:59;4.80;;;2.97;;
5995;SDS011;3026;53.612;7.278;2022-12-28T05:49:26;3.60;;;2.77;;
5995;SDS011;3026;53.612;7.278;2022-12-28T05:51:53;2.90;;;2.70;;
5995;SDS011;3026;53.612;7.278;2022-12-28T05:54:20;3.13;;;2.80;;
5995;SDS011;3026;53.612;7.278;2022-12-28T05:56:48;2.73;;;2.50;;
5995;SDS011;3026;53.612;7.278;2022-12-28T05:59:16;3.00;;;2.70;;
5995;SDS011;3026;53.612;7.278;2022-12-28T06:01:43;4.63;;;2.70;;
5995;SDS011;3026;53.612;7.278;2022-12-28T06:04:12;2.57;;;2.30;;
5995;SDS011;3026;53.612;7.278;2022-12-28T06:06:42;2.33;;;2.13;;
5995;SDS011;3026;53.612;7.278;2022-12-28T06:09:10;3.53;;;2.80;;
5995;SDS011;3026;53.612;7.278;2022-12-28T06:11:37;2.83;;;2.63;;
5995;SDS011;3026;53.612;7.278;2022-12-28T06:14:05;4.60;;;2.60;;
5995;SDS011;3026;53.612;7.278;2022-12-28T06:16:33;5.30;;;2.67;;
5995;SDS011;3026;53.612;7.278;2022-12-28T06:19:02;3.40;;;2.60;;
5995;SDS011;3026;53.612;7.278;2022-12-28T06:21:33;2.93;;;2.60;;
5995;SDS011;3026;53.612;7.278;2022-12-28T06:24:02;3.13;;;2.63;;
5995;SDS011;3026;53.612;7.278;2022-12-28T06:26:30;4.30;;;2.50;;
5995;SDS011;3026;53.612;7.278;2022-12-28T06:28:58;4.23;;;2.73;;
5995;SDS011;3026;53.612;7.278;2022-12-28T06:31:27;3.00;;;2.70;;
5995;SDS011;3026;53.612;7.278;2022-12-28T06:33:56;2.90;;;2.63;;
5995;SDS011;3026;53.612;7.278;2022-12-28T06:36:24;3.40;;;2.97;;
5995;SDS011;3026;53.612;7.278;2022-12-28T06:38:55;2.70;;;2.50;;
5995;SDS011;3026;53.612;7.278;2022-12-28T06:41:23;3.00;;;2.80;;
5995;SDS011;3026;53.612;7.278;2022-12-28T06:43:51;4.73;;;3.03;;
5995;SDS011;3026;53.612;7.278;2022-12-28T06:46:19;3.43;;;3.03;;
5995;SDS011;3026;53.612;7.278;2022-12-28T06:48:47;4.73;;;3.50;;
5995;SDS011;3026;53.612;7.278;2022-12-28T06:51:16;4.20;;;3.80;;
5995;SDS011;3026;53.612;7.278;2022-12-28T06:53:44;4.77;;;4.03;;
5995;SDS011;3026;53.612;7.278;2022-12-28T06:56:14;5.10;;;4.40;;
5995;SDS011;3026;53.612;7.278;2022-12-28T06:58:42;6.83;;;4.77;;
5995;SDS011;3026;53.612;7.278;2022-12-28T07:01:11;6.13;;;5.00;;
5995;SDS011;3026;53.612;7.278;2022-12-28T07:03:40;5.63;;;5.13;;
5995;SDS011;3026;53.612;7.278;2022-12-28T07:06:07;6.10;;;5.50;;
5995;SDS011;3026;53.612;7.278;2022-12-28T07:08:35;6.47;;;5.60;;
5995;SDS011;3026;53.612;7.278;2022-12-28T07:11:02;7.37;;;5.77;;
5995;SDS011;3026;53.612;7.278;2022-12-28T07:13:31;7.93;;;6.37;;
5995;SDS011;3026;53.612;7.278;2022-12-28T07:16:00;8.50;;;5.97;;
5995;SDS011;3026;53.612;7.278;2022-12-28T07:18:30;11.43;;;6.63;;
5995;SDS011;3026;53.612;7.278;2022-12-28T07:20:58;7.97;;;5.93;;
5995;SDS011;3026;53.612;7.278;2022-12-28T07:23:26;6.93;;;6.27;;
5995;SDS011;3026;53.612;7.278;2022-12-28T07:25:55;7.83;;;7.00;;
5995;SDS011;3026;53.612;7.278;2022-12-28T07:28:23;7.63;;;6.73;;
5995;SDS011;3026;53.612;7.278;2022-12-28T07:30:51;8.67;;;6.40;;
5995;SDS011;3026;53.612;7.278;2022-12-28T07:33:18;7.50;;;6.30;;
5995;SDS011;3026;53.612;7.278;2022-12-28T07:35:45;8.20;;;6.73;;
5995;SDS011;3026;53.612;7.278;2022-12-28T07:38:12;8.73;;;6.63;;
5995;SDS011;3026;53.612;7.278;2022-12-28T07:40:39;7.67;;;5.97;;
5995;SDS011;3026;53.612;7.278;2022-12-28T07:43:05;7.60;;;6.37;;
5995;SDS011;3026;53.612;7.278;2022-12-28T07:45:32;8.87;;;6.17;;
5995;SDS011;3026;53.612;7.278;2022-12-28T07:48:01;7.27;;;5.60;;
5995;SDS011;3026;53.612;7.278;2022-12-28T07:50:28;6.37;;;5.73;;
5995;SDS011;3026;53.612;7.278;2022-12-28T07:52:56;5.90;;;5.30;;
5995;SDS011;3026;53.612;7.278;2022-12-28T07:55:23;6.77;;;5.57;;
5995;SDS011;3026;53.612;7.278;2022-12-28T07:57:54;6.03;;;5.27;;
5995;SDS011;3026;53.612;7.278;2022-12-28T08:00:21;6.57;;;5.80;;
5995;SDS011;3026;53.612;7.278;2022-12-28T08:02:48;6.20;;;5.43;;
5995;SDS011;3026;53.612;7.278;2022-12-28T08:05:16;6.03;;;5.43;;
5995;SDS011;3026;53.612;7.278;2022-12-28T08:07:43;6.87;;;5.33;;
5995;SDS011;3026;53.612;7.278;2022-12-28T08:10:10;6.33;;;5.10;;
5995;SDS011;3026;53.612;7.278;2022-12-28T08:12:37;5.33;;;4.83;;
5995;SDS011;3026;53.612;7.278;2022-12-28T08:15:04;6.70;;;5.27;;
5995;SDS011;3026;53.612;7.278;2022-12-28T08:17:32;6.27;;;5.23;;
5995;SDS011;3026;53.612;7.278;2022-12-28T08:19:59;7.83;;;5.33;;
5995;SDS011;3026;53.612;7.278;2022-12-28T08:22:27;6.07;;;5.23;;
5995;SDS011;3026;53.612;7.278;2022-12-28T08:24:54;6.00;;;5.03;;
5995;SDS011;3026;53.612;7.278;2022-12-28T08:27:21;6.40;;;5.33;;
5995;SDS011;3026;53.612;7.278;2022-12-28T08:29:48;5.87;;;5.27;;
5995;SDS011;3026;53.612;7.278;2022-12-28T08:32:15;6.73;;;5.77;;
5995;SDS011;3026;53.612;7.278;2022-12-28T08:34:42;7.07;;;5.13;;
5995;SDS011;3026;53.612;7.278;2022-12-28T08:37:09;5.60;;;5.10;;
5995;SDS011;3026;53.612;7.278;2022-12-28T08:39:38;6.83;;;5.30;;
5995;SDS011;3026;53.612;7.278;2022-12-28T08:42:05;6.60;;;5.43;;
5995;SDS011;3026;53.612;7.278;2022-12-28T08:44:32;6.00;;;4.83;;
5995;SDS011;3026;53.612;7.278;2022-12-28T08:46:59;6.70;;;4.80;;
5995;SDS011;3026;53.612;7.278;2022-12-28T08:49:26;6.90;;;5.50;;
5995;SDS011;3026;53.612;7.278;2022-12-28T08:51:53;6.77;;;5.13;;
5995;SDS011;3026;53.612;7.278;2022-12-28T08:54:21;7.60;;;5.23;;
5995;SDS011;3026;53.612;7.278;2022-12-28T08:56:49;6.93;;;5.43;;
5995;SDS011;3026;53.612;7.278;2022-12-28T08:59:18;8.87;;;5.83;;
5995;SDS011;3026;53.612;7.278;2022-12-28T09:01:45;7.83;;;5.87;;
5995;SDS011;3026;53.612;7.278;2022-12-28T09:04:13;7.93;;;5.30;;
5995;SDS011;3026;53.612;7.278;2022-12-28T09:06:42;7.63;;;5.60;;
5995;SDS011;3026;53.612;7.278;2022-12-28T09:09:10;11.33;;;5.83;;
5995;SDS011;3026;53.612;7.278;2022-12-28T09:11:39;13.37;;;6.20;;
5995;SDS011;3026;53.612;7.278;2022-12-28T09:14:08;14.50;;;5.70;;
5995;SDS011;3026;53.612;7.278;2022-12-28T09:16:36;18.80;;;7.53;;
5995;SDS011;3026;53.612;7.278;2022-12-28T09:19:05;10.70;;;5.90;;
5995;SDS011;3026;53.612;7.278;2022-12-28T09:21:34;15.33;;;5.70;;
5995;SDS011;3026;53.612;7.278;2022-12-28T09:24:02;9.83;;;5.53;;
5995;SDS011;3026;53.612;7.278;2022-12-28T09:26:30;11.20;;;6.30;;
5995;SDS011;3026;53.612;7.278;2022-12-28T09:29:02;12.03;;;5.43;;
5995;SDS011;3026;53.612;7.278;2022-12-28T09:31:32;9.03;;;5.07;;
5995;SDS011;3026;53.612;7.278;2022-12-28T09:34:05;9.43;;;5.70;;
5995;SDS011;3026;53.612;7.278;2022-12-28T09:36:36;9.20;;;5.67;;
5995;SDS011;3026;53.612;7.278;2022-12-28T09:39:04;10.60;;;5.73;;
5995;SDS011;3026;53.612;7.278;2022-12-28T09:41:34;8.10;;;5.17;;
5995;SDS011;3026;53.612;7.278;2022-12-28T09:44:08;8.13;;;4.67;;
5995;SDS011;3026;53.612;7.278;2022-12-28T09:46:53;5.77;;;4.47;;
5995;SDS011;3026;53.612;7.278;2022-12-28T09:49:25;6.63;;;4.37;;
5995;SDS011;3026;53.612;7.278;2022-12-28T09:52:02;9.93;;;4.50;;
5995;SDS011;3026;53.612;7.278;2022-12-28T09:54:36;5.97;;;4.53;;
5995;SDS011;3026;53.612;7.278;2022-12-28T09:57:06;5.87;;;4.90;;
5995;SDS011;3026;53.612;7.278;2022-12-28T09:59:37;7.23;;;4.70;;
5995;SDS011;3026;53.612;7.278;2022-12-28T10:02:13;6.80;;;5.47;;
5995;SDS011;3026;53.612;7.278;2022-12-28T10:04:47;7.03;;;4.70;;
5995;SDS011;3026;53.612;7.278;2022-12-28T10:07:16;6.43;;;4.43;;
5995;SDS011;3026;53.612;7.278;2022-12-28T10:09:43;6.30;;;4.10;;
5995;SDS011;3026;53.612;7.278;2022-12-28T10:12:13;6.40;;;3.97;;
5995;SDS011;3026;53.612;7.278;2022-12-28T10:14:41;4.80;;;3.63;;
5995;SDS011;3026;53.612;7.278;2022-12-28T10:17:12;6.30;;;4.20;;
5995;SDS011;3026;53.612;7.278;2022-12-28T10:19:43;4.63;;;3.97;;
5995;SDS011;3026;53.612;7.278;2022-12-28T10:22:13;5.17;;;3.23;;
5995;SDS011;3026;53.612;7.278;2022-12-28T10:24:44;5.13;;;3.83;;
5995;SDS011;3026;53.612;7.278;2022-12-28T10:27:12;4.97;;;4.10;;
5995;SDS011;3026;53.612;7.278;2022-12-28T10:29:46;4.27;;;3.87;;
5995;SDS011;3026;53.612;7.278;2022-12-28T10:32:17;8.13;;;4.10;;
5995;SDS011;3026;53.612;7.278;2022-12-28T10:34:52;6.87;;;4.33;;
5995;SDS011;3026;53.612;7.278;2022-12-28T10:37:20;4.13;;;3.67;;
5995;SDS011;3026;53.612;7.278;2022-12-28T10:39:50;5.67;;;4.57;;
5995;SDS011;3026;53.612;7.278;2022-12-28T10:42:22;4.90;;;4.10;;
5995;SDS011;3026;53.612;7.278;2022-12-28T10:44:51;5.60;;;3.97;;
5995;SDS011;3026;53.612;7.278;2022-12-28T10:47:26;4.47;;;4.07;;
5995;SDS011;3026;53.612;7.278;2022-12-28T10:49:56;3.30;;;3.00;;
5995;SDS011;3026;53.612;7.278;2022-12-28T10:52:23;3.07;;;2.77;;
5995;SDS011;3026;53.612;7.278;2022-12-28T10:54:54;2.70;;;2.50;;
5995;SDS011;3026;53.612;7.278;2022-12-28T10:57:27;3.57;;;2.23;;
5995;SDS011;3026;53.612;7.278;2022-12-28T11:02:42;1.60;;;1.50;;
5995;SDS011;3026;53.612;7.278;2022-12-28T11:05:17;2.23;;;2.03;;
5995;SDS011;3026;53.612;7.278;2022-12-28T11:07:46;2.50;;;2.23;;
5995;SDS011;3026;53.612;7.278;2022-12-28T11:10:23;2.47;;;2.27;;
5995;SDS011;3026;53.612;7.278;2022-12-28T11:12:52;3.30;;;2.43;;
5995;SDS011;3026;53.612;7.278;2022-12-28T11:15:21;2.57;;;2.37;;
5995;SDS011;3026;53.612;7.278;2022-12-28T11:17:53;2.60;;;2.13;;
5995;SDS011;3026;53.612;7.278;2022-12-28T11:20:22;2.50;;;2.30;;
5995;SDS011;3026;53.612;7.278;2022-12-28T11:22:52;4.27;;;2.57;;
5995;SDS011;3026;53.612;7.278;2022-12-28T11:25:22;3.00;;;2.67;;
5995;SDS011;3026;53.612;7.278;2022-12-28T11:27:55;3.00;;;2.70;;
5995;SDS011;3026;53.612;7.278;2022-12-28T11:30:22;3.07;;;2.00;;
5995;SDS011;3026;53.612;7.278;2022-12-28T11:32:53;2.30;;;2.10;;
5995;SDS011;3026;53.612;7.278;2022-12-28T11:35:23;2.70;;;2.47;;
5995;SDS011;3026;53.612;7.278;2022-12-28T11:37:54;2.50;;;1.83;;
5995;SDS011;3026;53.612;7.278;2022-12-28T11:46:05;2.30;;;2.10;;
5995;SDS011;3026;53.612;7.278;2022-12-28T11:48:43;2.23;;;1.87;;
5995;SDS011;3026;53.612;7.278;2022-12-28T11:51:15;1.90;;;1.73;;
5995;SDS011;3026;53.612;7.278;2022-12-28T11:53:51;2.33;;;1.80;;
5995;SDS011;3026;53.612;7.278;2022-12-28T11:56:22;2.63;;;2.40;;
5995;SDS011;3026;53.612;7.278;2022-12-28T11:59:01;2.10;;;2.00;;
5995;SDS011;3026;53.612;7.278;2022-12-28T12:01:51;2.07;;;1.87;;
5995;SDS011;3026;53.612;7.278;2022-12-28T12:12:59;2.23;;;1.63;;
5995;SDS011;3026;53.612;7.278;2022-12-28T12:15:33;3.77;;;1.60;;
5995;SDS011;3026;53.612;7.278;2022-12-28T12:18:06;1.40;;;1.30;;
5995;SDS011;3026;53.612;7.278;2022-12-28T12:20:45;1.47;;;1.37;;
5995;SDS011;3026;53.612;7.278;2022-12-28T12:23:27;1.83;;;1.73;;
5995;SDS011;3026;53.612;7.278;2022-12-28T12:26:12;2.10;;;1.90;;
5995;SDS011;3026;53.612;7.278;2022-12-28T12:28:45;2.03;;;1.83;;
5995;SDS011;3026;53.612;7.278;2022-12-28T12:42:00;2.13;;;1.77;;
5995;SDS011;3026;53.612;7.278;2022-12-28T12:44:37;2.43;;;1.90;;
5995;SDS011;3026;53.612;7.278;2022-12-28T12:53:19;1.50;;;1.40;;
5995;SDS011;3026;53.612;7.278;2022-12-28T12:55:56;1.50;;;1.40;;
5995;SDS011;3026;53.612;7.278;2022-12-28T12:58:30;1.73;;;1.63;;
5995;SDS011;3026;53.612;7.278;2022-12-28T13:01:12;2.97;;;2.67;;
5995;SDS011;3026;53.612;7.278;2022-12-28T13:03:47;2.17;;;1.60;;
5995;SDS011;3026;53.612;7.278;2022-12-28T13:06:17;1.57;;;1.47;;
5995;SDS011;3026;53.612;7.278;2022-12-28T13:08:46;1.50;;;1.40;;
5995;SDS011;3026;53.612;7.278;2022-12-28T13:11:16;1.50;;;1.40;;
5995;SDS011;3026;53.612;7.278;2022-12-28T13:13:46;1.57;;;1.23;;
5995;SDS011;3026;53.612;7.278;2022-12-28T13:16:15;1.50;;;1.40;;
5995;SDS011;3026;53.612;7.278;2022-12-28T13:18:54;1.40;;;1.30;;
5995;SDS011;3026;53.612;7.278;2022-12-28T13:21:23;1.37;;;1.27;;
5995;SDS011;3026;53.612;7.278;2022-12-28T13:23:51;1.50;;;1.40;;
5995;SDS011;3026;53.612;7.278;2022-12-28T13:26:19;1.43;;;1.33;;
5995;SDS011;3026;53.612;7.278;2022-12-28T13:28:54;1.43;;;1.33;;
5995;SDS011;3026;53.612;7.278;2022-12-28T13:31:27;1.57;;;1.47;;
5995;SDS011;3026;53.612;7.278;2022-12-28T13:33:59;2.63;;;1.50;;
5995;SDS011;3026;53.612;7.278;2022-12-28T13:36:27;1.77;;;1.30;;
5995;SDS011;3026;53.612;7.278;2022-12-28T13:39:02;1.40;;;1.30;;
5995;SDS011;3026;53.612;7.278;2022-12-28T13:41:36;1.20;;;1.10;;
5995;SDS011;3026;53.612;7.278;2022-12-28T13:44:14;1.40;;;1.30;;
5995;SDS011;3026;53.612;7.278;2022-12-28T13:46:51;1.27;;;1.17;;
5995;SDS011;3026;53.612;7.278;2022-12-28T13:49:23;1.30;;;1.20;;
5995;SDS011;3026;53.612;7.278;2022-12-28T13:51:52;1.17;;;1.10;;
5995;SDS011;3026;53.612;7.278;2022-12-28T13:54:20;1.37;;;1.27;;
5995;SDS011;3026;53.612;7.278;2022-12-28T13:56:49;2.20;;;1.30;;
5995;SDS011;3026;53.612;7.278;2022-12-28T13:59:19;1.87;;;1.10;;
5995;SDS011;3026;53.612;7.278;2022-12-28T14:01:47;1.43;;;1.20;;
5995;SDS011;3026;53.612;7.278;2022-12-28T14:04:17;1.20;;;1.10;;
5995;SDS011;3026;53.612;7.278;2022-12-28T14:06:47;1.63;;;1.53;;
5995;SDS011;3026;53.612;7.278;2022-12-28T14:09:15;2.93;;;1.40;;
5995;SDS011;3026;53.612;7.278;2022-12-28T14:11:44;1.93;;;1.40;;
5995;SDS011;3026;53.612;7.278;2022-12-28T14:14:12;1.33;;;1.23;;
5995;SDS011;3026;53.612;7.278;2022-12-28T14:16:42;1.50;;;1.40;;
5995;SDS011;3026;53.612;7.278;2022-12-28T14:19:10;1.63;;;1.33;;
5995;SDS011;3026;53.612;7.278;2022-12-28T14:21:38;2.57;;;2.23;;
5995;SDS011;3026;53.612;7.278;2022-12-28T14:24:07;1.20;;;1.20;;
5995;SDS011;3026;53.612;7.278;2022-12-28T14:26:35;1.47;;;1.37;;
5995;SDS011;3026;53.612;7.278;2022-12-28T14:29:09;1.97;;;1.40;;
5995;SDS011;3026;53.612;7.278;2022-12-28T14:31:39;1.67;;;1.50;;
5995;SDS011;3026;53.612;7.278;2022-12-28T14:34:17;1.30;;;1.20;;
5995;SDS011;3026;53.612;7.278;2022-12-28T14:36:48;1.40;;;1.30;;
5995;SDS011;3026;53.612;7.278;2022-12-28T14:39:20;1.83;;;1.63;;
5995;SDS011;3026;53.612;7.278;2022-12-28T14:41:51;3.43;;;1.57;;
5995;SDS011;3026;53.612;7.278;2022-12-28T14:44:22;1.50;;;1.40;;
5995;SDS011;3026;53.612;7.278;2022-12-28T14:46:53;1.23;;;1.10;;
5995;SDS011;3026;53.612;7.278;2022-12-28T14:49:29;4.87;;;1.27;;
5995;SDS011;3026;53.612;7.278;2022-12-28T14:55:03;1.33;;;1.23;;
5995;SDS011;3026;53.612;7.278;2022-12-28T14:57:45;1.70;;;1.30;;
5995;SDS011;3026;53.612;7.278;2022-12-28T15:00:20;2.90;;;1.37;;
5995;SDS011;3026;53.612;7.278;2022-12-28T15:02:49;1.90;;;1.40;;
5995;SDS011;3026;53.612;7.278;2022-12-28T15:05:38;3.13;;;1.37;;
5995;SDS011;3026;53.612;7.278;2022-12-28T15:08:07;1.40;;;1.20;;
5995;SDS011;3026;53.612;7.278;2022-12-28T15:10:35;1.13;;;1.10;;
5995;SDS011;3026;53.612;7.278;2022-12-28T15:13:06;0.90;;;0.90;;
5995;SDS011;3026;53.612;7.278;2022-12-28T15:15:33;2.97;;;1.13;;
5995;SDS011;3026;53.612;7.278;2022-12-28T15:18:00;1.27;;;1.10;;
5995;SDS011;3026;53.612;7.278;2022-12-28T15:20:27;1.67;;;1.10;;
5995;SDS011;3026;53.612;7.278;2022-12-28T15:22:56;2.63;;;1.20;;
5995;SDS011;3026;53.612;7.278;2022-12-28T15:25:23;1.23;;;1.10;;
5995;SDS011;3026;53.612;7.278;2022-12-28T15:27:50;3.37;;;1.30;;
5995;SDS011;3026;53.612;7.278;2022-12-28T15:30:18;3.10;;;1.30;;
5995;SDS011;3026;53.612;7.278;2022-12-28T15:32:45;1.67;;;1.20;;
5995;SDS011;3026;53.612;7.278;2022-12-28T15:35:12;4.00;;;1.37;;
5995;SDS011;3026;53.612;7.278;2022-12-28T15:37:40;4.27;;;1.40;;
5995;SDS011;3026;53.612;7.278;2022-12-28T15:40:10;3.07;;;1.57;;
5995;SDS011;3026;53.612;7.278;2022-12-28T15:42:37;2.17;;;1.50;;
5995;SDS011;3026;53.612;7.278;2022-12-28T15:45:05;3.03;;;2.03;;
5995;SDS011;3026;53.612;7.278;2022-12-28T15:47:34;5.53;;;2.60;;
5995;SDS011;3026;53.612;7.278;2022-12-28T15:50:02;3.73;;;1.87;;
5995;SDS011;3026;53.612;7.278;2022-12-28T15:52:30;2.13;;;1.70;;
5995;SDS011;3026;53.612;7.278;2022-12-28T15:54:57;2.63;;;1.80;;
5995;SDS011;3026;53.612;7.278;2022-12-28T15:57:26;3.37;;;2.20;;
5995;SDS011;3026;53.612;7.278;2022-12-28T15:59:54;2.00;;;1.80;;
5995;SDS011;3026;53.612;7.278;2022-12-28T16:02:21;3.80;;;2.23;;
5995;SDS011;3026;53.612;7.278;2022-12-28T16:04:48;2.23;;;1.87;;
5995;SDS011;3026;53.612;7.278;2022-12-28T16:07:15;4.83;;;2.40;;
5995;SDS011;3026;53.612;7.278;2022-12-28T16:09:43;2.73;;;2.10;;
5995;SDS011;3026;53.612;7.278;2022-12-28T16:12:10;6.73;;;2.43;;
5995;SDS011;3026;53.612;7.278;2022-12-28T16:14:43;4.10;;;2.20;;